createdAt,value
2023-03-21T00:00:43.041Z,7.60
2023-03-21T00:03:09.968Z,10.25
2023-03-21T00:05:42.059Z,10.75
2023-03-21T00:08:09.107Z,7.22
2023-03-21T00:10:41.679Z,12.57
2023-03-21T00:13:12.995Z,8.23
2023-03-21T00:16:01.950Z,6.75
2023-03-21T00:18:31.553Z,7.28
2023-03-21T00:21:35.926Z,9.18
2023-03-21T00:23:52.275Z,12.18
2023-03-21T00:26:18.994Z,10.20
2023-03-21T00:28:45.714Z,5.35
2023-03-21T00:31:12.250Z,7.88
2023-03-21T00:33:39.321Z,10.95
2023-03-21T00:36:07.350Z,14.35
2023-03-21T00:38:34.738Z,8.82
2023-03-21T00:41:16.448Z,6.50
2023-03-21T00:43:47.759Z,15.60
2023-03-21T00:46:14.470Z,9.80
2023-03-21T00:48:41.311Z,11.18
2023-03-21T00:51:26.628Z,7.43
2023-03-21T00:53:55.747Z,6.95
2023-03-21T00:56:22.887Z,4.82
2023-03-21T00:58:49.551Z,8.35
2023-03-21T01:01:16.187Z,9.00
2023-03-21T01:03:42.866Z,5.43
2023-03-21T01:06:13.207Z,5.72
2023-03-21T01:08:51.656Z,11.35
2023-03-21T01:11:20.815Z,6.95
2023-03-21T01:13:54.606Z,7.13
2023-03-21T01:16:24.916Z,10.90
2023-03-21T01:18:51.575Z,12.10
2023-03-21T01:21:18.346Z,5.57
2023-03-21T01:23:45.392Z,8.23
2023-03-21T01:26:13.179Z,7.32
2023-03-21T01:28:41.874Z,8.25
2023-03-21T01:31:09.765Z,5.05
2023-03-21T01:33:36.580Z,10.10
2023-03-21T01:36:12.626Z,6.63
2023-03-21T01:38:39.467Z,10.98
2023-03-21T01:41:17.104Z,8.80
2023-03-21T01:46:25.342Z,9.40
2023-03-21T01:49:00.123Z,8.02
2023-03-21T01:51:28.088Z,8.52
2023-03-21T01:53:56.046Z,11.20
2023-03-21T01:56:33.314Z,9.80
2023-03-21T01:59:17.337Z,7.90
2023-03-21T02:01:45.309Z,8.20
2023-03-21T02:04:12.094Z,14.25
2023-03-21T02:06:48.232Z,9.13
2023-03-21T02:09:21.283Z,7.80
2023-03-21T02:11:48.335Z,9.40
2023-03-21T02:14:26.667Z,8.30
2023-03-21T02:17:06.689Z,10.85
2023-03-21T02:20:11.777Z,7.22
2023-03-21T02:23:04.762Z,10.32
2023-03-21T02:26:02.909Z,12.30
2023-03-21T02:28:38.016Z,10.35
2023-03-21T02:31:35.817Z,11.75
2023-03-21T02:34:31.991Z,9.57
2023-03-21T02:37:36.808Z,9.60
2023-03-21T02:40:25.066Z,8.55
2023-03-21T02:43:14.160Z,10.45
2023-03-21T02:45:59.334Z,11.77
2023-03-21T02:48:49.939Z,10.30
2023-03-21T02:51:21.453Z,10.13
2023-03-21T02:54:23.705Z,7.20
2023-03-21T02:56:45.957Z,10.52
2023-03-21T02:59:14.320Z,7.47
2023-03-21T03:01:40.963Z,9.17
2023-03-21T03:04:27.217Z,13.70
2023-03-21T03:07:18.207Z,10.30
2023-03-21T03:09:57.269Z,13.13
2023-03-21T03:12:53.698Z,9.85
2023-03-21T03:15:54.563Z,9.05
2023-03-21T03:18:37.844Z,8.50
2023-03-21T03:21:19.614Z,11.30
2023-03-21T03:24:01.563Z,10.88
2023-03-21T03:26:43.011Z,12.60
2023-03-21T03:29:17.117Z,10.93
2023-03-21T03:32:01.279Z,8.82
2023-03-21T03:34:39.354Z,8.73
2023-03-21T03:37:10.697Z,13.13
2023-03-21T03:39:43.745Z,12.15
2023-03-21T03:42:30.224Z,9.75
2023-03-21T03:44:57.549Z,11.07
2023-03-21T03:47:56.750Z,9.85
2023-03-21T03:50:30.920Z,13.13
2023-03-21T03:53:09.769Z,9.77
2023-03-21T03:55:43.777Z,10.18
2023-03-21T03:58:21.153Z,10.98
2023-03-21T04:03:16.462Z,8.70
2023-03-21T04:05:46.232Z,8.90
2023-03-21T04:08:14.216Z,9.00
2023-03-21T04:10:41.896Z,12.48
2023-03-21T04:13:08.807Z,11.95
2023-03-21T04:15:35.647Z,11.20
2023-03-21T04:18:02.356Z,9.60
2023-03-21T04:20:36.550Z,10.48
2023-03-21T04:23:04.356Z,11.93
2023-03-21T04:25:34.790Z,9.50
2023-03-21T04:28:01.909Z,9.15
2023-03-21T04:30:28.922Z,11.32
2023-03-21T04:32:56.946Z,10.07
2023-03-21T04:35:24.869Z,8.43
2023-03-21T04:37:51.681Z,7.60
2023-03-21T04:40:18.677Z,9.35
2023-03-21T04:42:47.446Z,10.82
2023-03-21T04:45:15.807Z,10.90
2023-03-21T04:47:42.753Z,7.88
2023-03-21T04:50:11.053Z,10.10
2023-03-21T04:52:37.616Z,11.55
2023-03-21T04:55:04.655Z,9.02
2023-03-21T04:57:31.338Z,11.05
2023-03-21T04:59:57.875Z,10.80
2023-03-21T05:02:24.465Z,10.88
2023-03-21T05:04:51.102Z,9.57
2023-03-21T05:07:17.655Z,12.40
2023-03-21T05:09:44.239Z,11.52
2023-03-21T05:12:10.799Z,9.63
2023-03-21T05:14:37.358Z,12.50
2023-03-21T05:17:05.125Z,9.80
2023-03-21T05:19:35.830Z,10.38
2023-03-21T05:22:05.024Z,13.93
2023-03-21T05:24:32.802Z,13.98
2023-03-21T05:27:03.623Z,9.90
2023-03-21T05:29:31.753Z,10.82
2023-03-21T05:31:59.522Z,11.60
2023-03-21T05:34:27.361Z,12.82
2023-03-21T05:36:54.526Z,9.90
2023-03-21T05:39:21.587Z,12.05
2023-03-21T05:41:48.099Z,12.60
2023-03-21T05:44:14.617Z,12.95
2023-03-21T05:46:41.267Z,9.50
2023-03-21T05:49:07.783Z,10.52
2023-03-21T05:51:34.418Z,11.95
2023-03-21T05:54:01.009Z,12.30
2023-03-21T05:56:27.608Z,13.38
2023-03-21T05:58:54.132Z,9.50
2023-03-21T06:01:20.735Z,15.55
2023-03-21T06:03:47.365Z,12.15
2023-03-21T06:06:13.910Z,19.42
2023-03-21T06:08:40.530Z,13.55
2023-03-21T06:11:20.611Z,13.55
2023-03-21T06:13:47.178Z,14.00
2023-03-21T06:16:13.707Z,9.35
2023-03-21T06:18:40.341Z,9.73
2023-03-21T06:21:07.036Z,11.40
2023-03-21T06:23:33.795Z,9.75
2023-03-21T06:26:00.327Z,9.63
2023-03-21T06:28:26.934Z,15.55
2023-03-21T06:30:53.464Z,12.63
2023-03-21T06:33:20.158Z,12.93
2023-03-21T06:35:54.897Z,19.33
2023-03-21T06:38:22.179Z,9.27
2023-03-21T06:40:49.157Z,15.57
2023-03-21T06:43:18.512Z,16.98
2023-03-21T06:45:45.268Z,13.75
2023-03-21T06:48:12.425Z,17.10
2023-03-21T06:50:39.015Z,10.95
2023-03-21T06:53:05.771Z,14.40
2023-03-21T06:55:32.345Z,12.50
2023-03-21T06:57:59.551Z,11.73
2023-03-21T07:00:26.417Z,12.18
2023-03-21T07:02:53.725Z,9.07
2023-03-21T07:05:20.550Z,12.48
2023-03-21T07:07:47.129Z,12.75
2023-03-21T07:10:13.723Z,11.55
2023-03-21T07:12:40.277Z,14.55
2023-03-21T07:15:09.238Z,10.45
2023-03-21T07:17:35.852Z,13.75
2023-03-21T07:20:05.128Z,11.75
2023-03-21T07:25:04.785Z,22.17
2023-03-21T07:27:32.296Z,12.18
2023-03-21T07:29:59.135Z,54.03
2023-03-21T07:32:29.758Z,12.80
2023-03-21T07:34:56.581Z,9.80
2023-03-21T07:37:23.890Z,50.45
2023-03-21T07:39:51.263Z,15.25
2023-03-21T07:42:18.068Z,12.57
2023-03-21T07:44:44.770Z,11.98
2023-03-21T07:47:11.310Z,12.02
2023-03-21T07:49:37.884Z,11.00
2023-03-21T07:52:05.434Z,12.52
2023-03-21T07:54:31.941Z,14.10
2023-03-21T07:57:26.132Z,12.15
2023-03-21T08:09:45.155Z,14.38
2023-03-21T08:12:11.979Z,15.25
2023-03-21T08:14:38.670Z,13.07
2023-03-21T08:17:06.262Z,15.13
2023-03-21T08:19:32.918Z,14.30
2023-03-21T08:21:59.818Z,12.93
2023-03-21T08:24:28.259Z,14.85
2023-03-21T08:29:42.211Z,16.52
2023-03-21T08:39:46.793Z,13.05
2023-03-21T08:45:06.090Z,12.88
2023-03-21T08:50:20.557Z,16.15
2023-03-21T08:56:03.702Z,12.82
2023-03-21T08:58:30.251Z,19.90
2023-03-21T09:01:00.270Z,16.15
2023-03-21T09:03:27.457Z,13.70
2023-03-21T09:05:54.677Z,12.88
2023-03-21T09:08:24.121Z,15.45
2023-03-21T09:10:54.774Z,16.13
2023-03-21T09:13:21.783Z,11.98
2023-03-21T09:15:48.325Z,13.75
2023-03-21T09:18:18.007Z,15.00
2023-03-21T09:20:46.549Z,8.70
2023-03-21T09:23:14.814Z,13.10
2023-03-21T09:25:56.580Z,16.50
2023-03-21T09:28:24.081Z,19.35
2023-03-21T09:30:52.038Z,17.20
2023-03-21T09:45:35.485Z,15.45
2023-03-21T09:48:15.377Z,15.43
2023-03-21T09:50:44.850Z,22.50
2023-03-21T09:59:40.129Z,12.20
2023-03-21T10:02:47.045Z,10.70
2023-03-21T10:05:20.495Z,11.63
2023-03-21T10:07:53.716Z,9.90
2023-03-21T10:10:26.403Z,18.98
2023-03-21T10:12:54.446Z,12.85
2023-03-21T10:15:23.500Z,23.05
2023-03-21T10:18:59.165Z,16.95
2023-03-21T10:35:58.187Z,10.68
2023-03-21T10:45:28.769Z,12.45
2023-03-21T10:51:33.183Z,11.35
2023-03-21T10:54:05.663Z,13.60
2023-03-21T10:56:38.401Z,15.35
2023-03-21T10:59:06.686Z,15.02
2023-03-21T11:01:39.891Z,11.00
2023-03-21T11:04:22.537Z,14.15
2023-03-21T11:07:02.832Z,15.18
2023-03-21T11:09:50.083Z,13.50
2023-03-21T11:12:32.435Z,17.05
2023-03-21T11:15:27.227Z,11.65
2023-03-21T11:17:59.563Z,20.75
2023-03-21T11:23:34.165Z,12.45
2023-03-21T11:26:11.347Z,11.30
2023-03-21T11:28:44.866Z,15.13
2023-03-21T11:37:26.644Z,12.75
2023-03-21T11:40:08.685Z,13.40
2023-03-21T11:48:45.234Z,25.27
2023-03-21T11:51:25.190Z,16.02
2023-03-21T11:53:55.771Z,11.23
2023-03-21T11:56:49.116Z,18.63
2023-03-21T11:59:27.794Z,17.42
2023-03-21T12:02:16.342Z,22.65
2023-03-21T12:05:04.451Z,14.88
2023-03-21T12:07:53.975Z,19.83
2023-03-21T12:10:33.227Z,20.27
2023-03-21T12:16:19.080Z,19.90
2023-03-21T12:19:01.882Z,21.48
2023-03-21T12:21:55.012Z,18.15
2023-03-21T12:24:40.718Z,11.32
2023-03-21T12:27:44.210Z,19.33
2023-03-21T12:30:24.786Z,10.95
2023-03-21T12:33:00.244Z,32.55
2023-03-21T12:35:46.464Z,15.80
2023-03-21T12:38:43.320Z,35.65
2023-03-21T12:41:09.824Z,16.67
2023-03-21T12:44:05.306Z,17.75
2023-03-21T12:46:48.969Z,17.60
2023-03-21T12:49:22.042Z,17.90
2023-03-21T12:51:53.490Z,15.65
2023-03-21T12:54:28.965Z,17.13
2023-03-21T12:57:04.163Z,17.20
2023-03-21T12:59:39.251Z,23.13
2023-03-21T13:02:31.241Z,17.50
2023-03-21T13:05:18.515Z,22.73
2023-03-21T13:07:51.475Z,17.98
2023-03-21T13:10:24.294Z,16.17
2023-03-21T13:13:07.407Z,19.23
2023-03-21T13:16:02.331Z,18.55
2023-03-21T13:18:57.342Z,22.48
2023-03-21T13:21:58.190Z,30.15
2023-03-21T13:24:38.632Z,27.73
2023-03-21T13:27:19.990Z,20.02
2023-03-21T13:29:50.504Z,19.02
2023-03-21T13:32:26.571Z,17.35
2023-03-21T13:35:01.009Z,14.30
2023-03-21T13:37:34.742Z,14.43
2023-03-21T13:40:12.862Z,17.98
2023-03-21T13:42:52.246Z,17.35
2023-03-21T13:45:33.130Z,16.73
2023-03-21T13:48:04.879Z,16.08
2023-03-21T13:51:00.800Z,15.48
2023-03-21T13:53:38.545Z,17.67
2023-03-21T13:56:17.272Z,17.98
2023-03-21T13:58:43.742Z,14.60
2023-03-21T14:01:41.254Z,20.00
2023-03-21T14:04:18.740Z,17.02
2023-03-21T14:06:56.860Z,17.10
2023-03-21T14:09:45.973Z,19.27
2023-03-21T14:15:06.830Z,15.40
2023-03-21T14:17:36.975Z,15.90
2023-03-21T14:20:14.443Z,15.00
2023-03-21T14:22:41.441Z,15.48
2023-03-21T14:25:15.596Z,19.60
2023-03-21T14:27:52.513Z,11.25
2023-03-21T14:30:26.483Z,14.80
2023-03-21T14:33:03.217Z,15.13
2023-03-21T14:35:32.332Z,13.10
2023-03-21T14:38:07.334Z,20.48
2023-03-21T14:40:34.494Z,13.40
2023-03-21T14:43:06.241Z,16.23
2023-03-21T14:45:36.536Z,12.73
2023-03-21T14:48:12.010Z,12.40
2023-03-21T14:50:47.974Z,18.33
2023-03-21T14:53:22.140Z,14.13
2023-03-21T14:56:01.809Z,14.32
2023-03-21T14:58:30.665Z,26.05
2023-03-21T15:01:02.942Z,35.22
2023-03-21T15:03:30.563Z,25.17
2023-03-21T15:05:58.266Z,14.95
2023-03-21T15:08:27.351Z,15.90
2023-03-21T15:11:07.714Z,13.98
2023-03-21T15:13:46.662Z,14.50
2023-03-21T15:16:16.472Z,14.18
2023-03-21T15:18:45.345Z,15.68
2023-03-21T15:21:17.032Z,20.20
2023-03-21T15:23:46.514Z,17.85
2023-03-21T15:26:18.538Z,22.20
2023-03-21T15:28:47.962Z,17.58
2023-03-21T15:31:20.029Z,15.90
2023-03-21T15:33:49.818Z,16.77
2023-03-21T15:36:27.119Z,20.35
2023-03-21T15:38:54.955Z,24.23
2023-03-21T15:41:21.401Z,17.27
2023-03-21T15:44:08.674Z,16.05
2023-03-21T15:46:46.290Z,11.63
2023-03-21T15:49:12.912Z,16.95
2023-03-21T15:51:48.870Z,16.02
2023-03-21T15:54:20.043Z,12.65
2023-03-21T15:56:46.642Z,19.27
2023-03-21T15:59:17.997Z,17.73
2023-03-21T16:01:48.827Z,13.50
2023-03-21T16:04:18.216Z,14.07
2023-03-21T16:07:15.925Z,19.52
2023-03-21T16:09:44.847Z,17.10
2023-03-21T16:12:14.024Z,18.35
2023-03-21T16:14:42.475Z,24.88
2023-03-21T16:17:32.934Z,11.50
2023-03-21T16:20:00.469Z,20.02
2023-03-21T16:22:34.751Z,14.15
2023-03-21T16:25:01.307Z,15.98
2023-03-21T16:27:27.893Z,17.17
2023-03-21T16:29:54.437Z,15.25
2023-03-21T16:32:21.090Z,23.63
2023-03-21T16:34:48.280Z,14.50
2023-03-21T16:37:15.941Z,17.05
2023-03-21T16:39:43.058Z,19.17
2023-03-21T16:42:13.695Z,17.48
2023-03-21T16:44:40.491Z,15.70
2023-03-21T16:47:19.563Z,13.45
2023-03-21T16:49:46.293Z,18.00
2023-03-21T16:52:14.413Z,18.70
2023-03-21T16:54:42.060Z,13.98
2023-03-21T16:57:27.455Z,24.77
2023-03-21T16:59:55.450Z,18.13
2023-03-21T17:02:23.452Z,15.73
2023-03-21T17:04:50.364Z,17.90
2023-03-21T17:07:17.734Z,16.00
2023-03-21T17:09:44.355Z,24.35
2023-03-21T17:12:13.617Z,16.33
2023-03-21T17:17:15.618Z,17.80
2023-03-21T17:19:42.583Z,21.38
2023-03-21T17:22:10.462Z,20.85
2023-03-21T17:24:38.850Z,18.13
2023-03-21T17:27:08.198Z,19.25
2023-03-21T17:29:34.824Z,20.20
2023-03-21T17:32:01.381Z,19.48
2023-03-21T17:34:27.860Z,24.75
2023-03-21T17:36:54.775Z,20.52
2023-03-21T17:39:24.145Z,20.27
2023-03-21T17:44:20.306Z,21.80
2023-03-21T17:46:49.582Z,18.93
2023-03-21T17:49:17.852Z,25.85
2023-03-21T17:51:46.677Z,21.27
2023-03-21T17:54:13.255Z,25.45
2023-03-21T17:56:41.561Z,22.70
2023-03-21T17:59:12.471Z,38.83
2023-03-21T18:01:39.177Z,19.98
2023-03-21T18:04:05.849Z,22.08
2023-03-21T18:06:34.210Z,22.90
2023-03-21T18:09:06.623Z,24.70
2023-03-21T18:11:33.530Z,22.02
2023-03-21T18:14:14.943Z,46.15
2023-03-21T18:16:42.790Z,28.02
2023-03-21T18:19:11.102Z,29.83
2023-03-21T18:21:40.448Z,28.30
2023-03-21T18:26:34.149Z,29.63
2023-03-21T18:29:56.995Z,23.83
2023-03-21T18:32:04.505Z,24.70
2023-03-21T18:34:32.409Z,28.00
2023-03-21T18:36:58.920Z,26.10
2023-03-21T18:39:25.729Z,25.20
2023-03-21T18:41:57.819Z,31.00
2023-03-21T18:44:25.615Z,31.65
2023-03-21T18:46:52.456Z,33.65
2023-03-21T18:52:06.633Z,30.38
2023-03-21T18:54:33.946Z,40.28
2023-03-21T18:59:47.589Z,30.05
2023-03-21T19:02:15.334Z,26.65
2023-03-21T19:04:43.227Z,35.30
2023-03-21T19:07:10.147Z,29.75
2023-03-21T19:10:13.962Z,29.98
2023-03-21T19:12:25.426Z,30.33
2023-03-21T19:14:52.033Z,27.83
2023-03-21T19:20:06.596Z,56.70
2023-03-21T19:22:33.164Z,71.95
2023-03-21T19:24:59.713Z,28.17
2023-03-21T19:27:27.005Z,29.67
2023-03-21T19:30:10.754Z,48.78
2023-03-21T19:32:40.586Z,56.50
2023-03-21T19:35:07.604Z,41.15
2023-03-21T19:37:36.210Z,31.10
2023-03-21T19:40:05.210Z,86.43
2023-03-21T19:42:32.347Z,41.45
2023-03-21T19:44:59.019Z,48.05
2023-03-21T19:47:26.154Z,31.55
2023-03-21T19:52:41.179Z,39.20
2023-03-21T19:55:08.233Z,35.92
2023-03-21T19:57:35.216Z,31.20
2023-03-21T20:00:02.306Z,38.42
2023-03-21T20:02:37.171Z,34.45
2023-03-21T20:05:06.525Z,36.92
2023-03-21T20:07:33.222Z,28.88
2023-03-21T20:10:00.111Z,30.73
2023-03-21T20:12:28.496Z,31.77
2023-03-21T20:15:07.033Z,22.45
2023-03-21T20:17:42.198Z,31.65
2023-03-21T20:20:10.080Z,28.98
2023-03-21T20:23:05.228Z,29.00
2023-03-21T20:25:23.827Z,33.10
2023-03-21T20:28:09.299Z,35.67
2023-03-21T20:30:37.220Z,31.35
2023-03-21T20:33:04.308Z,28.80
2023-03-21T20:36:17.875Z,33.22
2023-03-21T20:38:20.352Z,31.42
2023-03-21T20:40:47.870Z,29.55
2023-03-21T20:44:06.525Z,35.95
2023-03-21T20:46:03.819Z,31.05
2023-03-21T20:48:31.570Z,33.85
2023-03-21T20:51:01.834Z,36.97
2023-03-21T20:53:30.451Z,41.88
2023-03-21T20:56:02.031Z,42.42
2023-03-21T20:58:55.287Z,37.92
2023-03-21T21:01:17.136Z,23.63
2023-03-21T21:03:44.342Z,44.28
2023-03-21T21:06:13.145Z,35.22
2023-03-21T21:08:41.150Z,31.42
2023-03-21T21:12:02.411Z,39.88
2023-03-21T21:13:56.738Z,23.23
2023-03-21T21:16:23.654Z,33.53
2023-03-21T21:18:50.187Z,28.63
2023-03-21T21:21:17.564Z,32.13
2023-03-21T21:23:44.112Z,34.58
2023-03-21T21:26:11.994Z,35.42
2023-03-21T21:28:43.053Z,35.72
2023-03-21T21:31:19.730Z,36.03
2023-03-21T21:33:49.839Z,44.28
2023-03-21T21:36:16.763Z,45.38
2023-03-21T21:38:43.292Z,47.63
2023-03-21T21:41:17.480Z,49.10
2023-03-21T21:43:44.028Z,45.80
2023-03-21T21:46:12.160Z,44.03
2023-03-21T21:48:42.359Z,51.88
2023-03-21T21:51:09.497Z,50.13
2023-03-21T21:53:36.599Z,70.18
2023-03-21T21:56:04.270Z,68.90
2023-03-21T21:58:33.611Z,72.50
2023-03-21T22:01:04.261Z,72.00
2023-03-21T22:03:40.873Z,73.60
2023-03-21T22:06:09.588Z,70.20
2023-03-21T22:08:36.490Z,62.13
2023-03-21T22:11:04.410Z,74.53
2023-03-21T22:13:31.192Z,66.28
2023-03-21T22:15:57.814Z,80.88
2023-03-21T22:18:24.416Z,74.40
2023-03-21T22:20:51.115Z,75.53
2023-03-21T22:23:19.289Z,71.93
2023-03-21T22:25:51.289Z,75.35
2023-03-21T22:28:17.864Z,72.38
2023-03-21T22:30:44.415Z,69.78
2023-03-21T22:33:11.185Z,66.35
2023-03-21T22:35:37.882Z,77.97
2023-03-21T22:38:04.488Z,72.47
2023-03-21T22:40:31.071Z,72.28
2023-03-21T22:42:57.608Z,74.68
2023-03-21T22:45:24.124Z,66.45
2023-03-21T22:47:50.805Z,69.57
2023-03-21T22:50:17.451Z,64.00
2023-03-21T22:52:44.168Z,55.33
2023-03-21T22:55:12.511Z,66.32
2023-03-21T22:57:39.081Z,56.13
2023-03-21T23:00:13.058Z,53.25
2023-03-21T23:02:42.730Z,57.40
2023-03-21T23:05:10.325Z,52.53
2023-03-21T23:07:37.365Z,47.13
2023-03-21T23:10:05.228Z,51.25
2023-03-21T23:12:32.331Z,45.72
2023-03-21T23:14:58.866Z,48.58
2023-03-21T23:17:26.556Z,49.20
2023-03-21T23:19:53.054Z,52.67
2023-03-21T23:22:19.645Z,45.95
2023-03-21T23:24:46.915Z,50.17
2023-03-21T23:27:14.212Z,46.13
2023-03-21T23:29:40.833Z,49.65
2023-03-21T23:32:07.406Z,54.72
2023-03-21T23:34:33.971Z,61.00
2023-03-21T23:37:00.551Z,60.05
2023-03-21T23:39:28.132Z,62.80
2023-03-21T23:41:54.744Z,68.03
2023-03-21T23:44:21.234Z,77.63
2023-03-21T23:46:47.736Z,82.07
2023-03-21T23:49:15.192Z,84.32
2023-03-21T23:51:42.171Z,80.07
2023-03-21T23:54:09.028Z,81.82
2023-03-21T23:56:36.435Z,80.78
2023-03-21T23:59:03.762Z,94.85
